Time;durP1;ratioP1;P1;durP2;ratioP2;P2;SDS_P1;SDS_P2;PMS_P1;PMS_P2;Temp;Humidity;BMP_temperature;BMP_pressure;BME280_temperature;BME280_humidity;BME280_pressure;Samples;Min_cycle;Max_cycle;Signal;HPM_P1;HPM_P2
2021/07/11 00:02:18;;;;;;;6.30;4.50;;;;;;;20.78;57.52;98519.53;5148304;27;20142;-91
2021/07/11 00:04:44;;;;;;;6.97;4.50;;;;;;;20.77;57.60;98528.59;5148005;27;20126;-90
2021/07/11 00:07:14;;;;;;;6.05;4.50;;;;;;;20.75;57.73;98530.53;5149489;27;20042;-89
2021/07/11 00:09:41;;;;;;;6.43;4.40;;;;;;;20.62;58.09;98506.25;5150824;27;20088;-90
2021/07/11 00:12:07;;;;;;;7.43;4.45;;;;;;;20.52;58.37;98510.56;5150311;27;20046;-89
2021/07/11 00:14:33;;;;;;;7.45;4.80;;;;;;;20.59;58.16;98516.44;5150205;27;20885;-91
2021/07/11 00:16:59;;;;;;;8.40;4.78;;;;;;;20.62;57.84;98517.03;5146024;27;20063;-90
2021/07/11 00:19:25;;;;;;;6.45;4.20;;;;;;;20.59;58.09;98513.72;5147994;27;20042;-91
2021/07/11 00:21:51;;;;;;;7.45;4.05;;;;;;;20.37;58.55;98501.72;5150344;27;20084;-91
2021/07/11 00:24:16;;;;;;;8.75;4.47;;;;;;;20.37;58.46;98503.56;5148791;27;20070;-91
2021/07/11 00:26:43;;;;;;;6.25;4.45;;;;;;;20.47;58.66;98528.94;5150244;27;20448;-91
2021/07/11 00:29:09;;;;;;;8.13;4.53;;;;;;;20.45;58.81;98523.66;5149445;27;20365;-91
2021/07/11 00:31:35;;;;;;;8.52;4.72;;;;;;;20.29;58.89;98498.69;5148434;27;20042;-90
2021/07/11 00:34:01;;;;;;;6.70;4.60;;;;;;;20.42;59.01;98523.84;5143520;27;20051;-91
2021/07/11 00:36:27;;;;;;;8.70;4.50;;;;;;;20.37;59.27;98519.78;5149869;27;20038;-91
2021/07/11 00:38:52;;;;;;;8.95;4.53;;;;;;;20.35;59.35;98527.97;5149078;27;20035;-91
2021/07/11 00:41:18;;;;;;;6.80;4.32;;;;;;;20.17;59.88;98515.75;5148605;27;20571;-91
2021/07/11 00:43:45;;;;;;;7.25;4.78;;;;;;;20.14;59.95;98514.16;5149960;27;20114;-92
2021/07/11 00:46:11;;;;;;;11.20;4.55;;;;;;;20.15;59.84;98520.44;5135543;27;20092;-91
2021/07/11 00:48:37;;;;;;;13.73;4.75;;;;;;;20.06;59.41;98497.63;5135725;27;20027;-91
2021/07/11 00:51:03;;;;;;;9.70;4.25;;;;;;;20.25;59.54;98527.75;5135094;27;20546;-91
2021/07/11 00:53:29;;;;;;;7.88;5.03;;;;;;;20.05;59.61;98504.00;5135079;27;20031;-92
2021/07/11 00:55:55;;;;;;;6.15;4.50;;;;;;;20.06;59.83;98512.00;5135532;27;20027;-91
2021/07/11 00:58:20;;;;;;;8.55;4.78;;;;;;;20.02;59.79;98502.38;5135341;27;20037;-92
2021/07/11 01:00:54;;;;;;;9.15;4.35;;;;;;;20.00;59.87;98495.38;5133826;27;20118;-91
2021/07/11 01:03:28;;;;;;;10.27;4.60;;;;;;;20.06;60.26;98503.03;5132064;27;20519;-91
2021/07/11 01:05:54;;;;;;;9.10;4.47;;;;;;;20.09;60.32;98513.63;5133724;27;20511;-91
2021/07/11 01:08:29;;;;;;;9.27;4.80;;;;;;;19.95;60.38;98516.41;5135153;27;20705;-91
2021/07/11 01:11:00;;;;;;;7.40;4.50;;;;;;;19.96;60.85;98534.34;5134549;27;20047;-90
2021/07/11 01:13:28;;;;;;;7.82;4.63;;;;;;;19.99;60.39;98528.72;5131260;27;20046;-91
2021/07/11 01:15:58;;;;;;;8.38;4.93;;;;;;;20.05;59.84;98517.50;5132987;27;20078;-89
2021/07/11 01:18:26;;;;;;;8.90;5.18;;;;;;;20.07;60.06;98526.34;5135545;27;20127;-92
2021/07/11 01:20:56;;;;;;;9.32;5.18;;;;;;;19.99;60.11;98524.19;5134862;27;20100;-91
2021/07/11 01:23:34;;;;;;;7.45;4.97;;;;;;;19.89;60.10;98496.97;5133600;27;20043;-91
2021/07/11 01:26:02;;;;;;;8.05;4.70;;;;;;;20.04;60.00;98526.59;5134953;27;20038;-91
2021/07/11 01:28:29;;;;;;;10.10;5.18;;;;;;;19.79;60.46;98501.28;5135273;27;20039;-91
2021/07/11 01:30:55;;;;;;;9.85;4.80;;;;;;;19.56;60.76;98493.88;5132990;27;20070;-91
2021/07/11 01:33:24;;;;;;;10.95;4.60;;;;;;;19.79;60.61;98517.47;5134472;27;20050;-92
2021/07/11 01:35:50;;;;;;;6.97;4.90;;;;;;;19.79;60.65;98519.31;5133176;27;20070;-91
2021/07/11 01:38:17;;;;;;;8.38;4.93;;;;;;;19.65;60.38;98487.88;5132856;27;20057;-91
2021/07/11 01:40:46;;;;;;;7.57;4.82;;;;;;;19.62;60.96;98506.94;5134766;27;20039;-91
2021/07/11 01:43:16;;;;;;;10.48;5.55;;;;;;;19.61;60.70;98497.13;5126525;27;20442;-90
2021/07/11 01:45:42;;;;;;;6.78;4.90;;;;;;;19.64;61.20;98510.41;5133474;27;20035;-91
2021/07/11 01:48:09;;;;;;;8.23;4.47;;;;;;;19.43;60.83;98480.34;5134693;27;20039;-91
2021/07/11 01:50:35;;;;;;;6.93;5.22;;;;;;;19.36;61.40;98476.34;5134945;27;20039;-91
2021/07/11 01:53:01;;;;;;;7.50;4.82;;;;;;;19.42;61.78;98492.13;5131886;27;20039;-91
2021/07/11 01:55:28;;;;;;;7.57;4.50;;;;;;;19.29;61.90;98486.69;5135435;27;20515;-91
2021/07/11 01:57:55;;;;;;;8.15;4.95;;;;;;;19.20;62.13;98488.16;5135055;27;20047;-90
2021/07/11 02:00:22;;;;;;;7.70;4.65;;;;;;;19.12;62.53;98485.13;5131581;27;20039;-91
2021/07/11 02:02:49;;;;;;;9.25;4.70;;;;;;;19.11;62.41;98493.31;5136120;27;20492;-91
2021/07/11 02:05:17;;;;;;;8.85;5.13;;;;;;;19.07;62.71;98506.97;5135950;27;20492;-89
2021/07/11 02:07:43;;;;;;;11.65;4.75;;;;;;;19.12;62.25;98513.91;5136250;27;20031;-90
2021/07/11 02:10:11;;;;;;;5.97;4.85;;;;;;;19.01;62.13;98515.47;5136421;27;20460;-91
2021/07/11 02:12:43;;;;;;;8.40;5.17;;;;;;;18.97;62.90;98527.41;5132879;27;20125;-90
2021/07/11 02:15:11;;;;;;;8.23;5.13;;;;;;;19.08;62.45;98533.00;5132723;27;20488;-90
2021/07/11 02:17:44;;;;;;;5.60;4.70;;;;;;;19.16;62.12;98537.00;5134060;27;20036;-90
2021/07/11 02:20:10;;;;;;;8.02;4.50;;;;;;;19.16;62.41;98528.91;5135781;27;20537;-90
2021/07/11 02:22:41;;;;;;;6.93;5.10;;;;;;;19.16;62.56;98540.56;5135777;27;20036;-90
2021/07/11 02:25:07;;;;;;;7.28;4.50;;;;;;;19.26;62.39;98544.38;5129612;27;20045;-90
2021/07/11 02:27:34;;;;;;;10.13;4.90;;;;;;;19.27;62.32;98547.94;5136065;27;20063;-90
2021/07/11 02:30:06;;;;;;;8.82;4.68;;;;;;;19.26;62.48;98548.91;5133599;27;20428;-90
2021/07/11 02:32:32;;;;;;;5.78;4.65;;;;;;;19.22;62.52;98550.94;5134856;27;20054;-90
2021/07/11 02:35:00;;;;;;;9.80;5.22;;;;;;;19.21;62.37;98551.88;5135264;27;20043;-90
2021/07/11 02:37:28;;;;;;;10.70;5.30;;;;;;;19.01;62.72;98528.94;5135262;27;20487;-90
2021/07/11 02:39:55;;;;;;;8.98;5.03;;;;;;;18.88;63.22;98526.19;5135390;27;20046;-89
2021/07/11 02:42:22;;;;;;;6.40;4.60;;;;;;;18.88;63.38;98531.56;5135710;27;20027;-91
2021/07/11 02:44:53;;;;;;;8.45;4.93;;;;;;;18.98;63.25;98541.78;5135234;27;20042;-90
2021/07/11 02:47:23;;;;;;;8.27;5.50;;;;;;;18.90;63.06;98512.63;5133484;27;20099;-91
2021/07/11 02:49:51;;;;;;;10.90;5.20;;;;;;;18.97;63.25;98531.94;5135263;27;20085;-90
2021/07/11 02:52:21;;;;;;;6.50;4.90;;;;;;;18.82;63.61;98526.59;5129648;27;20034;-90
2021/07/11 02:54:51;;;;;;;8.30;4.50;;;;;;;18.75;63.55;98519.84;5135017;27;20035;-90
2021/07/11 02:57:19;;;;;;;7.40;4.47;;;;;;;18.68;63.18;98508.59;5132178;27;20047;-90
2021/07/11 02:59:46;;;;;;;8.52;4.50;;;;;;;18.57;62.91;98500.34;5134024;27;20042;-90
2021/07/11 03:02:13;;;;;;;7.10;4.38;;;;;;;18.61;62.91;98512.66;5132286;27;20122;-91
2021/07/11 03:04:42;;;;;;;8.75;4.20;;;;;;;18.56;61.73;98514.75;5134272;27;20395;-91
2021/07/11 03:07:08;;;;;;;;;;;;;;;18.50;63.06;98531.31;5134154;27;20138;-90
2021/07/11 03:09:35;;;;;;;6.60;4.03;;;;;;;18.46;62.24;98524.41;5133774;27;20427;-90
2021/07/11 03:12:02;;;;;;;7.10;4.05;;;;;;;18.20;62.61;98507.19;5133665;27;20043;-91
2021/07/11 03:14:29;;;;;;;8.73;4.07;;;;;;;18.30;62.52;98540.63;5133891;27;20035;-92
2021/07/11 03:16:57;;;;;;;7.65;3.80;;;;;;;18.29;62.27;98540.75;5132056;27;20064;-91
2021/07/11 03:19:25;;;;;;;8.20;3.90;;;;;;;18.17;62.47;98545.03;5133962;27;20058;-91
2021/07/11 03:21:51;;;;;;;6.40;4.13;;;;;;;18.12;62.77;98547.16;5134279;27;20035;-91
2021/07/11 03:24:21;;;;;;;7.40;4.40;;;;;;;18.14;62.97;98556.88;5133644;27;20306;-91
2021/07/11 03:26:49;;;;;;;7.13;4.00;;;;;;;18.06;63.77;98553.78;5134033;27;20046;-92
2021/07/11 03:29:25;;;;;;;7.28;4.38;;;;;;;18.14;64.01;98573.00;5133965;27;20039;-90
2021/07/11 03:31:54;;;;;;;7.72;4.68;;;;;;;18.10;64.07;98566.09;5130287;28;20097;-90
2021/07/11 03:34:21;;;;;;;8.93;4.00;;;;;;;18.05;64.30;98562.81;5133414;28;20046;-90
2021/07/11 03:36:49;;;;;;;7.07;4.00;;;;;;;17.94;64.97;98543.78;5133574;28;20287;-90
2021/07/11 03:39:16;;;;;;;6.93;4.97;;;;;;;17.85;65.12;98546.06;5133810;28;20391;-90
2021/07/11 03:41:45;;;;;;;7.72;4.70;;;;;;;17.77;65.31;98534.84;5133726;28;20062;-89
2021/07/11 03:44:13;;;;;;;7.18;4.15;;;;;;;17.88;65.48;98545.00;5132000;28;20091;-90
2021/07/11 03:46:42;;;;;;;9.02;4.53;;;;;;;17.88;65.57;98536.94;5131822;28;20492;-90
2021/07/11 03:49:09;;;;;;;;;;;;;;;17.97;65.27;98557.03;5133798;28;20038;-90
2021/07/11 03:51:39;;;;;;;7.72;4.38;;;;;;;17.88;65.58;98555.78;5133643;28;20006;-90
2021/07/11 03:54:07;;;;;;;9.20;4.35;;;;;;;17.89;65.52;98560.22;5132168;28;20043;-91
2021/07/11 03:56:35;;;;;;;10.35;5.00;;;;;;;17.72;66.32;98561.19;5140785;27;20058;-90
2021/07/11 03:59:02;;;;;;;8.38;5.03;;;;;;;17.63;66.67;98561.69;5144220;27;20028;-90
2021/07/11 04:01:33;;;;;;;9.63;4.80;;;;;;;17.65;66.56;98549.03;5145715;27;20050;-90
2021/07/11 04:04:04;;;;;;;8.55;4.90;;;;;;;17.71;66.52;98563.94;5143597;27;20035;-90
2021/07/11 04:06:32;;;;;;;9.00;5.35;;;;;;;17.75;66.85;98562.81;5149759;27;20080;-90
2021/07/11 04:09:00;;;;;;;9.33;5.20;;;;;;;17.81;66.65;98563.31;5142619;27;20035;-90
2021/07/11 04:11:26;;;;;;;8.60;5.20;;;;;;;17.73;67.44;98562.91;5141664;27;20279;-89
2021/07/11 04:13:53;;;;;;;8.93;5.50;;;;;;;17.58;67.56;98544.97;5138552;27;20103;-91
2021/07/11 04:16:22;;;;;;;6.93;4.88;;;;;;;17.65;67.16;98551.72;5139772;27;20485;-90
2021/07/11 04:18:52;;;;;;;10.50;5.30;;;;;;;17.76;67.02;98576.19;5126651;28;20496;-89
2021/07/11 04:21:20;;;;;;;9.48;5.60;;;;;;;17.68;66.79;98558.75;5134198;27;20043;-91
2021/07/11 04:23:49;;;;;;;8.10;5.05;;;;;;;17.65;66.99;98554.41;5137028;27;20039;-91
2021/07/11 04:26:16;;;;;;;10.60;5.15;;;;;;;17.62;67.91;98559.97;5137087;27;20496;-91
2021/07/11 04:28:43;;;;;;;8.88;5.35;;;;;;;17.68;67.70;98567.69;5137326;27;20042;-92
2021/07/11 04:31:10;;;;;;;7.38;5.20;;;;;;;17.56;67.71;98550.44;5137080;27;20036;-90
2021/07/11 04:33:36;;;;;;;7.05;5.07;;;;;;;17.60;67.39;98559.22;5136796;27;20054;-91
2021/07/11 04:36:05;;;;;;;11.00;5.65;;;;;;;17.91;66.81;98573.53;5136886;27;20035;-91
2021/07/11 04:38:31;;;;;;;9.52;5.15;;;;;;;17.98;66.67;98578.47;5137086;27;20067;-90
2021/07/11 04:40:58;;;;;;;9.15;5.28;;;;;;;17.85;66.33;98564.03;5136966;27;20459;-89
2021/07/11 04:43:23;;;;;;;7.65;5.50;;;;;;;17.89;66.60;98559.31;5146383;27;20170;-89
2021/07/11 04:45:49;;;;;;;8.70;5.53;;;;;;;18.12;66.66;98585.69;5134954;27;20039;-90
2021/07/11 04:48:16;;;;;;;10.00;4.93;;;;;;;18.11;66.35;98569.63;5138205;27;20039;-91
2021/07/11 04:50:43;;;;;;;8.35;4.78;;;;;;;18.30;66.73;98604.38;5146978;27;20059;-91
2021/07/11 04:53:12;;;;;;;8.55;5.40;;;;;;;18.30;66.70;98602.53;5148040;27;20031;-91
2021/07/11 04:55:38;;;;;;;10.45;5.38;;;;;;;18.30;66.58;98589.09;5147868;27;20034;-91
2021/07/11 04:58:04;;;;;;;8.20;5.65;;;;;;;18.37;66.83;98601.22;5145500;27;20488;-92
2021/07/11 05:00:30;;;;;;;9.82;5.68;;;;;;;18.35;66.27;98588.81;5145886;27;20044;-90
2021/07/11 05:02:56;;;;;;;15.23;6.75;;;;;;;18.64;65.41;98605.84;5140005;27;20039;-91
2021/07/11 05:05:22;;;;;;;8.57;5.32;;;;;;;18.80;64.70;98585.09;5137337;27;20105;-91
2021/07/11 05:07:48;;;;;;;9.90;5.40;;;;;;;19.74;61.67;98605.09;5136426;27;20031;-91
2021/07/11 05:10:15;;;;;;;9.55;5.07;;;;;;;20.36;58.46;98575.59;5137081;27;20058;-92
2021/07/11 05:12:41;;;;;;;6.75;4.88;;;;;;;21.05;57.28;98573.38;5136968;27;20547;-91
2021/07/11 05:15:14;;;;;;;7.78;4.90;;;;;;;21.74;54.82;98589.06;5135278;27;20130;-90
2021/07/11 05:17:40;;;;;;;7.63;5.00;;;;;;;21.51;55.22;98582.66;5136345;27;20361;-90
2021/07/11 05:20:07;;;;;;;7.68;4.50;;;;;;;22.00;54.00;98586.22;5137361;27;20096;-90
2021/07/11 05:22:33;;;;;;;8.07;4.70;;;;;;;22.35;52.56;98567.25;5136991;27;20111;-89
2021/07/11 05:24:59;;;;;;;10.18;5.45;;;;;;;22.70;52.43;98585.25;5137247;27;20035;-90
2021/07/11 05:27:27;;;;;;;7.57;4.70;;;;;;;23.09;50.40;98586.63;5136829;27;21293;-90
2021/07/11 05:29:53;;;;;;;10.00;4.68;;;;;;;23.25;48.65;98569.09;5133765;27;20080;-91
2021/07/11 05:32:19;;;;;;;8.60;4.60;;;;;;;23.45;48.68;98576.44;5136972;27;20043;-91
2021/07/11 05:34:45;;;;;;;7.53;4.53;;;;;;;23.79;47.43;98551.94;5136845;27;20053;-90
2021/07/11 05:37:10;;;;;;;8.32;4.60;;;;;;;24.09;47.05;98572.88;5137024;27;20043;-91
2021/07/11 05:39:37;;;;;;;7.75;4.00;;;;;;;24.31;44.97;98552.88;5136790;27;20043;-90
2021/07/11 05:42:03;;;;;;;5.65;4.18;;;;;;;24.50;44.84;98570.31;5135843;27;20045;-91
2021/07/11 05:44:31;;;;;;;22.55;4.45;;;;;;;24.17;44.81;98534.19;5136502;27;20031;-91
2021/07/11 05:46:56;;;;;;;8.32;4.63;;;;;;;24.19;46.05;98560.22;5134899;27;20074;-90
2021/07/11 05:49:22;;;;;;;6.57;4.93;;;;;;;24.10;46.61;98562.88;5136001;27;20051;-89
2021/07/11 05:51:48;;;;;;;7.55;4.25;;;;;;;24.05;46.67;98565.13;5135970;27;20039;-90
2021/07/11 05:54:14;;;;;;;9.98;5.07;;;;;;;24.12;46.40;98559.03;5136968;27;20488;-92
2021/07/11 05:56:39;;;;;;;9.57;4.93;;;;;;;24.06;46.48;98546.00;5137247;27;20039;-92
2021/07/11 05:59:05;;;;;;;6.07;3.97;;;;;;;24.18;45.11;98571.22;5136992;27;20038;-91
2021/07/11 06:01:32;;;;;;;7.10;4.10;;;;;;;24.13;46.29;98544.44;5134599;27;21545;-90
2021/07/11 06:03:58;;;;;;;7.55;4.80;;;;;;;24.34;46.31;98566.19;5136399;27;20575;-90
2021/07/11 06:06:24;;;;;;;8.48;5.30;;;;;;;24.43;46.06;98556.38;5136652;27;20066;-91
2021/07/11 06:08:50;;;;;;;8.02;4.65;;;;;;;24.48;45.93;98559.56;5136791;27;20029;-91
2021/07/11 06:11:16;;;;;;;8.15;4.13;;;;;;;24.33;45.70;98553.59;5136534;27;20039;-90
2021/07/11 06:13:42;;;;;;;7.75;4.50;;;;;;;23.54;47.09;98545.81;5135231;27;20035;-90
2021/07/11 06:16:08;;;;;;;8.90;4.03;;;;;;;23.99;46.76;98564.66;5137303;27;20035;-90
2021/07/11 06:18:36;;;;;;;5.65;4.13;;;;;;;24.12;45.65;98566.34;5137025;27;20031;-93
2021/07/11 06:21:02;;;;;;;9.07;3.40;;;;;;;24.23;43.82;98568.13;5137240;27;20068;-90
2021/07/11 06:23:27;;;;;;;6.55;3.90;;;;;;;24.26;44.46;98570.56;5136799;27;20043;-91
2021/07/11 06:25:53;;;;;;;10.52;4.15;;;;;;;24.37;44.48;98560.47;5135780;27;20039;-89
2021/07/11 06:28:19;;;;;;;7.43;3.90;;;;;;;24.31;44.89;98552.88;5132788;27;20130;-92
2021/07/11 06:30:45;;;;;;;7.50;3.63;;;;;;;24.45;44.62;98559.81;5136715;27;20039;-91
2021/07/11 06:33:11;;;;;;;6.35;3.75;;;;;;;24.48;43.91;98554.13;5136063;27;20050;-91
2021/07/11 06:35:38;;;;;;;8.13;4.15;;;;;;;24.57;43.88;98587.81;5135850;27;20038;-91
2021/07/11 06:38:04;;;;;;;6.60;3.90;;;;;;;24.59;43.53;98583.97;5135780;27;20114;-91
2021/07/11 06:40:30;;;;;;;8.23;3.83;;;;;;;24.98;43.88;98591.44;5135778;27;20089;-89
2021/07/11 06:42:55;;;;;;;10.93;4.20;;;;;;;25.08;42.84;98595.06;5135642;27;20177;-90
2021/07/11 06:45:21;;;;;;;7.10;3.95;;;;;;;25.28;41.83;98590.56;5134352;27;20035;-89
2021/07/11 06:47:47;;;;;;;6.85;3.83;;;;;;;25.38;41.97;98575.13;5134969;27;20481;-92
2021/07/11 06:50:15;;;;;;;7.75;4.53;;;;;;;25.38;41.81;98568.81;5135720;27;20444;-91
2021/07/11 06:52:44;;;;;;;7.07;3.30;;;;;;;25.31;40.25;98557.66;5135162;27;20035;-91
2021/07/11 06:55:12;;;;;;;5.35;3.28;;;;;;;25.46;41.13;98588.06;5135153;27;20037;-90
2021/07/11 07:00:33;;;;;;;5.80;3.08;;;;;;;25.09;39.38;98585.91;5108025;27;20373;-91
2021/07/11 07:02:59;;;;;;;7.88;3.08;;;;;;;24.69;39.96;98588.59;5101928;28;20046;-90
2021/07/11 07:05:25;;;;;;;5.70;3.15;;;;;;;24.64;39.44;98589.00;5103957;28;20127;-91
2021/07/11 07:07:51;;;;;;;7.00;3.10;;;;;;;25.03;40.02;98602.78;5095031;28;20040;-90
2021/07/11 07:10:17;;;;;;;7.80;2.88;;;;;;;24.68;39.42;98582.31;5096016;28;20371;-91
2021/07/11 07:12:44;;;;;;;5.10;3.40;;;;;;;24.67;39.46;98596.03;5100964;28;20123;-90
2021/07/11 07:15:15;;;;;;;6.22;3.15;;;;;;;24.46;40.60;98601.44;5101819;28;20402;-89
2021/07/11 07:17:43;;;;;;;4.55;2.80;;;;;;;24.76;40.66;98597.94;5105697;28;20032;-89
2021/07/11 07:20:09;;;;;;;7.67;3.40;;;;;;;24.46;40.90;98585.13;5097414;28;20482;-90
2021/07/11 07:22:36;;;;;;;7.30;3.40;;;;;;;24.89;41.02;98592.25;5097719;28;20290;-91
2021/07/11 07:25:02;;;;;;;6.53;3.10;;;;;;;25.13;39.69;98575.59;5100045;28;20032;-91
2021/07/11 07:27:28;;;;;;;4.57;3.08;;;;;;;25.70;38.88;98578.59;5099342;28;20135;-91
2021/07/11 07:29:54;;;;;;;5.75;3.30;;;;;;;25.93;37.79;98582.81;5100126;28;20126;-91
2021/07/11 07:32:19;;;;;;;7.65;3.20;;;;;;;26.10;38.01;98580.38;5093041;28;20044;-92
2021/07/11 07:34:47;;;;;;;6.00;3.05;;;;;;;26.55;37.93;98582.44;5100108;28;20501;-92
2021/07/11 07:37:13;;;;;;;7.97;3.60;;;;;;;25.70;37.70;98579.47;5098158;28;20043;-91
2021/07/11 07:39:38;;;;;;;8.23;4.43;;;;;;;25.45;39.41;98583.59;5101383;28;20090;-91
2021/07/11 07:42:05;;;;;;;7.45;4.28;;;;;;;25.71;38.61;98575.75;5101172;28;20069;-90
2021/07/11 07:44:31;;;;;;;5.93;3.25;;;;;;;25.88;35.90;98582.38;5101546;28;20036;-91
2021/07/11 07:46:57;;;;;;;5.57;3.10;;;;;;;26.03;37.06;98591.00;5093253;28;20089;-92
2021/07/11 07:49:23;;;;;;;7.20;3.10;;;;;;;26.11;35.03;98569.34;5099676;28;20039;-92
2021/07/11 07:51:50;;;;;;;3.53;2.55;;;;;;;26.53;33.05;98566.22;5100707;28;20102;-93
2021/07/11 07:54:16;;;;;;;4.03;2.40;;;;;;;26.72;32.26;98575.38;5100188;28;20049;-94
2021/07/11 07:56:42;;;;;;;6.43;2.67;;;;;;;26.93;33.46;98562.38;5097903;28;20044;-89
2021/07/11 07:59:08;;;;;;;3.92;2.40;;;;;;;26.96;30.31;98580.34;5103160;28;20055;-91
2021/07/11 08:01:34;;;;;;;5.47;2.72;;;;;;;27.20;30.73;98586.09;5100472;28;20051;-91
2021/07/11 08:04:03;;;;;;;5.30;2.20;;;;;;;27.27;31.20;98577.34;5105349;28;20131;-90
2021/07/11 08:06:33;;;;;;;3.22;2.13;;;;;;;27.25;30.00;98586.50;5110958;28;20552;-92
2021/07/11 08:09:00;;;;;;;5.28;2.42;;;;;;;26.73;30.62;98607.97;5098345;28;20039;-90
2021/07/11 08:11:27;;;;;;;4.03;2.28;;;;;;;27.00;30.01;98589.91;5084732;28;20410;-93
2021/07/11 08:13:52;;;;;;;3.40;2.30;;;;;;;27.47;29.16;98602.66;5088251;28;20040;-91
2021/07/11 08:16:19;;;;;;;3.60;2.05;;;;;;;27.47;27.70;98591.72;5096065;28;20044;-91
2021/07/11 08:18:45;;;;;;;3.83;2.00;;;;;;;27.10;27.28;98595.34;5080930;28;20040;-90
2021/07/11 08:21:11;;;;;;;4.32;2.15;;;;;;;27.04;29.64;98592.22;5085608;28;20032;-91
2021/07/11 08:23:37;;;;;;;3.28;1.98;;;;;;;27.22;28.49;98584.09;5082411;28;20122;-90
2021/07/11 08:26:04;;;;;;;5.32;2.10;;;;;;;27.53;29.79;98594.69;5089024;28;20044;-90
2021/07/11 08:28:30;;;;;;;4.35;2.38;;;;;;;27.41;28.18;98569.50;5090952;28;20043;-90
2021/07/11 08:30:56;;;;;;;4.50;2.10;;;;;;;27.08;27.34;98575.53;5083546;28;20032;-90
2021/07/11 08:33:22;;;;;;;4.90;2.10;;;;;;;27.64;28.33;98586.28;5085950;28;20060;-91
2021/07/11 08:35:48;;;;;;;3.17;2.13;;;;;;;27.48;27.61;98567.00;5084879;28;20082;-91
2021/07/11 08:38:14;;;;;;;3.70;2.30;;;;;;;27.24;27.71;98568.44;5086171;28;20094;-92
2021/07/11 08:40:40;;;;;;;3.30;2.20;;;;;;;27.54;28.28;98584.63;5086109;28;20036;-91
2021/07/11 08:43:08;;;;;;;6.07;2.38;;;;;;;27.85;29.11;98574.25;5087418;28;20043;-91
2021/07/11 08:45:34;;;;;;;4.63;2.42;;;;;;;27.90;28.11;98582.81;5083507;28;20043;-89
2021/07/11 08:48:01;;;;;;;4.40;2.30;;;;;;;27.19;28.06;98567.13;5088117;28;20062;-91
2021/07/11 08:50:28;;;;;;;5.65;2.45;;;;;;;26.90;26.81;98572.75;5089008;28;20062;-89
2021/07/11 08:52:55;;;;;;;3.92;2.00;;;;;;;27.12;27.12;98560.56;5085934;28;20044;-91
2021/07/11 08:55:22;;;;;;;7.85;2.40;;;;;;;27.30;26.83;98566.09;5080945;28;20085;-90
2021/07/11 08:57:50;;;;;;;4.97;2.43;;;;;;;28.03;28.56;98571.50;5080060;28;20032;-91
2021/07/11 09:00:23;;;;;;;4.70;2.40;;;;;;;28.59;26.37;98559.28;5083697;28;20482;-92
2021/07/11 09:02:49;;;;;;;5.70;2.50;;;;;;;28.73;25.95;98565.19;5085448;28;20043;-93
2021/07/11 09:05:27;;;;;;;3.83;2.20;;;;;;;28.55;26.93;98578.94;5084901;28;20102;-90
2021/07/11 09:07:57;;;;;;;;;;;;;;;28.01;28.18;98574.38;5084848;28;20047;-91
2021/07/11 09:10:28;;;;;;;4.65;2.83;;;;;;;28.13;28.95;98561.34;5084565;28;19928;-91
2021/07/11 09:12:54;;;;;;;4.72;2.58;;;;;;;28.64;27.68;98558.81;5084659;28;20113;-89
2021/07/11 09:15:30;;;;;;;4.63;2.67;;;;;;;28.88;25.81;98552.59;5080116;28;20040;-91
2021/07/11 09:17:56;;;;;;;4.13;2.40;;;;;;;28.97;24.19;98551.63;5084432;28;20546;-90
2021/07/11 09:20:22;;;;;;;4.00;2.50;;;;;;;29.08;25.02;98553.19;5079306;28;20036;-91
2021/07/11 09:22:56;;;;;;;5.20;2.40;;;;;;;29.07;24.93;98552.34;5086113;28;20060;-91
2021/07/11 09:25:22;;;;;;;3.63;2.63;;;;;;;28.70;26.31;98535.41;5087945;28;20055;-90
2021/07/11 09:27:48;;;;;;;4.80;2.50;;;;;;;29.34;26.80;98558.63;5084310;28;20040;-90
2021/07/11 09:30:16;;;;;;;5.20;2.55;;;;;;;29.73;25.42;98540.78;5083435;28;20128;-91
2021/07/11 09:32:43;;;;;;;3.53;2.40;;;;;;;29.97;25.56;98540.81;5082104;28;20041;-90
2021/07/11 09:35:11;;;;;;;4.53;3.10;;;;;;;29.99;24.96;98535.13;5077152;28;20036;-91
2021/07/11 09:37:38;;;;;;;5.10;2.73;;;;;;;29.35;25.75;98551.28;5082931;28;20888;-91
2021/07/11 09:40:06;;;;;;;5.50;2.67;;;;;;;29.78;25.58;98543.88;5087295;28;20040;-91
2021/07/11 09:42:34;;;;;;;6.78;2.80;;;;;;;28.73;27.14;98544.13;5081010;28;20059;-90
2021/07/11 09:45:03;;;;;;;7.50;2.95;;;;;;;29.27;27.26;98535.69;5082288;28;20146;-91
2021/07/11 09:47:31;;;;;;;4.57;2.80;;;;;;;29.28;28.12;98534.69;5080617;28;20461;-91
2021/07/11 09:53:24;;;;;;;4.18;2.95;;;;;;;30.08;26.85;98521.28;5050322;27;20400;-89
2021/07/11 09:55:50;;;;;;;5.22;3.00;;;;;;;30.34;26.26;98533.09;5050860;28;20045;-91
2021/07/11 09:58:16;;;;;;;4.78;3.80;;;;;;;29.35;27.07;98523.91;5050573;28;20053;-90
2021/07/11 10:00:43;;;;;;;5.15;3.50;;;;;;;29.63;29.16;98533.53;5050704;28;20083;-91
2021/07/11 10:03:11;;;;;;;6.40;3.42;;;;;;;30.16;26.84;98531.34;5052721;28;20033;-90
2021/07/11 10:05:38;;;;;;;4.85;3.50;;;;;;;30.44;27.11;98537.38;5052457;28;20037;-90
2021/07/11 10:08:04;;;;;;;5.63;3.53;;;;;;;30.60;27.73;98527.38;5051152;28;20105;-91
2021/07/11 10:10:33;;;;;;;6.53;3.60;;;;;;;30.87;26.57;98532.47;5052633;28;20566;-90
2021/07/11 10:13:00;;;;;;;4.78;3.70;;;;;;;31.15;26.80;98526.53;5052823;28;20808;-90
2021/07/11 10:15:29;;;;;;;6.45;3.70;;;;;;;31.01;26.65;98527.28;5050569;28;20068;-91
2021/07/11 10:17:57;;;;;;;;;;;;;;;31.22;27.09;98540.41;5050663;28;20127;-90
2021/07/11 10:20:30;;;;;;;6.40;4.32;;;;;;;30.53;28.52;98519.00;5049311;28;19917;-91
2021/07/11 10:22:56;;;;;;;7.63;4.30;;;;;;;29.87;29.12;98523.66;5050588;28;20072;-90
2021/07/11 10:25:24;;;;;;;6.15;4.38;;;;;;;29.62;30.23;98534.56;5049717;28;20411;-88
2021/07/11 10:28:05;;;;;;;7.85;4.40;;;;;;;29.52;30.72;98524.81;5050086;28;20048;-91
2021/07/11 10:30:32;;;;;;;7.32;4.55;;;;;;;29.48;30.86;98521.53;5049246;28;20053;-91
2021/07/11 10:33:07;;;;;;;6.70;4.53;;;;;;;29.62;30.79;98517.25;5050008;28;20049;-88
2021/07/11 10:35:32;;;;;;;8.80;4.70;;;;;;;29.60;31.39;98533.00;5050157;28;20037;-90
2021/07/11 10:37:58;;;;;;;7.70;4.50;;;;;;;29.20;31.91;98524.53;5049990;28;20133;-91
2021/07/11 10:40:30;;;;;;;6.53;4.20;;;;;;;29.63;31.84;98529.94;5050555;28;20037;-92
2021/07/11 10:42:58;;;;;;;10.80;6.22;;;;;;;29.74;31.56;98532.41;5051604;28;20449;-90
2021/07/11 10:45:24;;;;;;;6.68;4.10;;;;;;;30.03;31.08;98540.09;5048436;28;20064;-90
2021/07/11 10:47:50;;;;;;;9.10;5.18;;;;;;;29.77;30.49;98537.53;5049893;28;20124;-91
2021/07/11 10:50:25;;;;;;;6.55;4.28;;;;;;;29.43;31.00;98538.47;5050048;28;20494;-91
2021/07/11 10:52:53;;;;;;;6.32;4.30;;;;;;;29.49;31.49;98525.97;5049650;28;20148;-90
2021/07/11 10:55:19;;;;;;;5.80;3.57;;;;;;;29.18;31.10;98523.84;5050446;28;20131;-91
2021/07/11 10:57:45;;;;;;;7.28;4.88;;;;;;;28.96;31.85;98535.38;5050287;28;20051;-93
2021/07/11 11:00:19;;;;;;;5.75;3.80;;;;;;;29.14;31.53;98527.94;5048685;28;20045;-91
2021/07/11 11:02:49;;;;;;;6.22;4.03;;;;;;;28.93;32.10;98514.66;5046058;28;20487;-91
2021/07/11 11:05:16;;;;;;;7.50;3.90;;;;;;;29.32;31.26;98516.00;5034667;28;20041;-90
2021/07/11 11:07:44;;;;;;;11.77;4.50;;;;;;;29.21;32.07;98522.66;5036402;28;20563;-88
2021/07/11 11:10:22;;;;;;;8.13;4.30;;;;;;;29.16;31.83;98517.66;5036542;28;20045;-90
2021/07/11 11:13:00;;;;;;;5.27;4.27;;;;;;;29.34;32.55;98525.75;5035743;28;20069;-92
2021/07/11 11:15:34;;;;;;;7.50;3.97;;;;;;;29.18;32.20;98523.00;5031797;28;20278;-90
2021/07/11 11:18:11;;;;;;;6.85;4.25;;;;;;;29.46;32.83;98532.66;5035926;28;20065;-90
2021/07/11 11:20:37;;;;;;;11.93;4.78;;;;;;;28.82;32.55;98509.47;5036344;28;20499;-91
2021/07/11 11:23:07;;;;;;;8.30;4.03;;;;;;;29.32;32.52;98508.66;5035881;28;20099;-91
2021/07/11 11:25:32;;;;;;;5.53;3.90;;;;;;;29.98;32.73;98522.47;5033393;28;20084;-91
2021/07/11 11:27:58;;;;;;;6.47;4.03;;;;;;;29.35;32.55;98499.25;5036515;28;20138;-90
2021/07/11 11:30:27;;;;;;;6.85;3.95;;;;;;;30.00;32.58;98513.03;5033888;28;20550;-91
2021/07/11 11:32:53;;;;;;;;;;;;;;;29.98;31.82;98517.00;5035943;28;20044;-90
2021/07/11 11:35:21;;;;;;;10.43;4.90;;;;;;;29.60;31.95;98511.09;5036363;28;19921;-94
2021/07/11 11:37:48;;;;;;;9.52;4.18;;;;;;;29.42;32.53;98506.63;5036041;28;20038;-91
2021/07/11 11:40:15;;;;;;;6.28;4.20;;;;;;;29.65;32.83;98504.09;5035666;28;20449;-91
2021/07/11 11:42:46;;;;;;;7.03;4.15;;;;;;;30.01;32.19;98490.06;5035157;28;20514;-90